WetterOnline ( https://www.wetteronline.de )

Wetter aktuell Wünschendorf

Aktuelles Wetter: Gera/Leumnitz (311m)

6-stündlich | Neueste Meldungen
Ortszeit Temperatur Wetter
Do, 13.06. 14:00 15.9° C wolkig
Do, 13.06. 8:00 11.2° C bedeckt
Do, 13.06. 2:00 10.5° C bewölkt
Mi, 12.06. 20:00 15.2° C bewölkt
Mi, 12.06. 14:00 14.0° C bedeckt
Mi, 12.06. 8:00 10.8° C wolkenlos
Mi, 12.06. 2:00 7.9° C leicht bewölkt
Di, 11.06. 20:00 14.8° C bedeckt
Ortszeit Temperatur Wetter
Do, 13.06. 15:00 15.7° C wolkig
Do, 13.06. 14:50 15.7° C wolkig
Do, 13.06. 14:40 16.5° C bewölkt
Do, 13.06. 14:30 15.0° C leichter Regen
Do, 13.06. 14:20 15.0° C leichter Regen
Do, 13.06. 14:10 15.2° C wolkig
Do, 13.06. 14:00 15.9° C wolkig
Do, 13.06. 13:30 15.5° C bewölkt
Do, 13.06. 13:00 14.6° C bewölkt
Do, 13.06. 12:30 15.1° C leicht bewölkt
Do, 13.06. 12:00 14.4° C leicht bewölkt
Ortszeit Relative Feuchte Sichtweite
Do, 13.06. 14:00 48% 40 km
Do, 13.06. 8:00 74% 35 km
Do, 13.06. 2:00 76% 65 km
Mi, 12.06. 20:00 53% >70 km
Mi, 12.06. 14:00 64% 60 km
Mi, 12.06. 8:00 70% 35 km
Mi, 12.06. 2:00 83% 50 km
Di, 11.06. 20:00 47% >70 km
Ortszeit Relative Feuchte Sichtweite
Do, 13.06. 15:00 43% >70 km
Do, 13.06. 14:50 43% -
Do, 13.06. 14:40 44% -
Do, 13.06. 14:30 53% 27 km
Do, 13.06. 14:20 53% -
Do, 13.06. 14:10 46% -
Do, 13.06. 14:00 48% 40 km
Do, 13.06. 13:30 47% >70 km
Do, 13.06. 13:00 52% >70 km
Do, 13.06. 12:30 52% 50 km
Do, 13.06. 12:00 57% 45 km
Ortszeit Niederschlagsmenge Niederschlagsart
Do, 13.06. 14:00 0.1 l/m2 in 6 Std. Regen
Do, 13.06. 8:00 0.1 l/m2 in 12 Std. -
Do, 13.06. 2:00 0.1 l/m2 in 6 Std. Regen
Mi, 12.06. 20:00 0.2 l/m2 in 12 Std. -
Mi, 12.06. 14:00 0.2 l/m2 in 6 Std. Regen
Mi, 12.06. 8:00 0.0 l/m2 in 12 Std. -
Mi, 12.06. 2:00 0.0 l/m2 in 6 Std. -
Di, 11.06. 20:00 0.1 l/m2 in 12 Std. -
Ortszeit Niederschlagsmenge Niederschlagsart
Do, 13.06. 15:00 <0.05 l/m2 in 1 Std. Regen
Do, 13.06. 14:50 keine Meldung -
Do, 13.06. 14:40 keine Meldung -
Do, 13.06. 14:30 <0.05 l/m2 in 30 Min -
Do, 13.06. 14:20 keine Meldung -
Do, 13.06. 14:10 keine Meldung -
Do, 13.06. 14:00 <0.05 l/m2 in 1 Std. Regen
Do, 13.06. 13:30 <0.05 l/m2 in 30 Min Schneeregen
Do, 13.06. 13:00 0.0 l/m2 in 1 Std. -
Do, 13.06. 12:30 0.0 l/m2 in 30 Min -
Do, 13.06. 12:00 <0.05 l/m2 in 1 Std. Regen
Ortszeit Stärke Spitze Richtung
km/h Bft. km/h Grad Sektor
Do, 13.06. 14:00 7 2 22 340° N
Do, 13.06. 8:00 7 2 11 310° NW
Do, 13.06. 2:00 7 2 18 300° NW
Mi, 12.06. 20:00 7 2 32 330° NW
Mi, 12.06. 14:00 11 2 43 280° W
Mi, 12.06. 8:00 7 2 14 250° W
Mi, 12.06. 2:00 9 2 35 230° SW
Di, 11.06. 20:00 18 3 36 310° NW
Ortszeit Stärke Spitze Richtung
km/h Bft. km/h Grad Sektor
Do, 13.06. 15:00 9 2 24 290° W
Do, 13.06. 14:50 9 2 - 290° W
Do, 13.06. 14:40 15 3 - 290° W
Do, 13.06. 14:30 13 3 20 320° NW
Do, 13.06. 14:20 13 3 - 320° NW
Do, 13.06. 14:10 9 2 - 300° NW
Do, 13.06. 14:00 7 2 22 340° N
Do, 13.06. 13:30 6 1 17 310° NW
Do, 13.06. 13:00 7 2 22 280° W
Do, 13.06. 12:30 7 2 22 290° W
Do, 13.06. 12:00 4 1 18 170° S
Ortszeit Untergrenze Bedeckung Gattung
total tief tief mittel hoch
Do, 13.06. 14:00 1440 m 6/8 6/8 - - -
Do, 13.06. 8:00 1380 m 8/8 8/8 - - -
Do, 13.06. 2:00 1800 m 7/8 7/8 - - -
Mi, 12.06. 20:00 3000 m 7/8 7/8 - - -
Mi, 12.06. 14:00 1440 m 8/8 8/8 - - -
Mi, 12.06. 8:00 - 0/8 0/8 - - -
Mi, 12.06. 2:00 3000 m 3/8 3/8 - - -
Di, 11.06. 20:00 6000 m 8/8 8/8 - - -
Ortszeit Bedeckungsgrad in Achtel und Wolkenuntergrenze
Do, 13.06. 15:00 1(1800m) 6(2700m)
Do, 13.06. 14:50 1(1800m) 6(2700m)
Do, 13.06. 14:40 7
Do, 13.06. 14:30 4(1470m) 7(2100m) 7(2700m)
Do, 13.06. 14:20 4(1470m) 7(2100m) 7(2700m)
Do, 13.06. 14:10 6
Do, 13.06. 14:00 4(1440m) 6(1800m) 6(2400m)
Do, 13.06. 13:30 1(1500m) 7(2400m)
Do, 13.06. 13:00 3(1380m) 7(1800m)
Do, 13.06. 12:30 1(1020m) 3(1500m)
Do, 13.06. 12:00 1(1260m) 3(4200m)
Ortszeit Luftdruck NN (hPa) Tendenz (hPa in 3 Std.)
Do, 13.06. 14:00 1017 - 1,2
Do, 13.06. 8:00 1019 + 0,8
Do, 13.06. 2:00 1019 + 0,2
Mi, 12.06. 20:00 1017 - 0,1
Mi, 12.06. 14:00 1018 - 0,2
Mi, 12.06. 8:00 1019 + 1,0
Mi, 12.06. 2:00 1018 + 0,4
Di, 11.06. 20:00 1015 + 0,4
Ortszeit Luftdruck NN (hPa) Tendenz (hPa in 3 Std.)
Do, 13.06. 15:00 1017 - 0,8
Do, 13.06. 14:50 1017 keine Meldung
Do, 13.06. 14:40 1017 keine Meldung
Do, 13.06. 14:30 1017 - 1,0
Do, 13.06. 14:20 1017 keine Meldung
Do, 13.06. 14:10 1017 keine Meldung
Do, 13.06. 14:00 1017 - 1,2
Do, 13.06. 13:30 1018 - 0,9
Do, 13.06. 13:00 1018 - 0,8
Do, 13.06. 12:30 1018 - 0,6
Do, 13.06. 12:00 1018 - 0,5
Ortszeit Schneehöhe (cm)
Do, 13.06. 14:00 0
Do, 13.06. 8:00 0
Do, 13.06. 2:00 0
Mi, 12.06. 20:00 0
Mi, 12.06. 14:00 0
Mi, 12.06. 8:00 0
Mi, 12.06. 2:00 0
Di, 11.06. 20:00 0
Ortszeit Schneehöhe (cm)
Do, 13.06. 15:00 0
Do, 13.06. 14:50 0
Do, 13.06. 14:40 -
Do, 13.06. 14:30 0
Do, 13.06. 14:20 0
Do, 13.06. 14:10 -
Do, 13.06. 14:00 0
Do, 13.06. 13:30 0
Do, 13.06. 13:00 0
Do, 13.06. 12:30 0
Do, 13.06. 12:00 0
Link zu dieser Seite / Seite empfehlen

Das Wetter in ...